createdAt,value
2023-05-24T00:00:20.752Z,95719
2023-05-24T00:01:29.409Z,95719
2023-05-24T00:02:39.121Z,95715
2023-05-24T00:03:48.855Z,95715
2023-05-24T00:04:58.406Z,95715
2023-05-24T00:06:08.054Z,95716
2023-05-24T00:07:17.854Z,95715
2023-05-24T00:08:27.513Z,95714
2023-05-24T00:09:36.170Z,95708
2023-05-24T00:10:45.820Z,95702
2023-05-24T00:11:54.460Z,95702
2023-05-24T00:13:04.109Z,95708
2023-05-24T00:14:12.823Z,95702
2023-05-24T00:15:21.493Z,95702
2023-05-24T00:16:30.176Z,95705
2023-05-24T00:17:39.849Z,95697
2023-05-24T00:18:49.463Z,95698
2023-05-24T00:19:58.188Z,95693
2023-05-24T00:21:07.818Z,95699
2023-05-24T00:22:17.491Z,95694
2023-05-24T00:23:25.154Z,95697
2023-05-24T00:24:33.806Z,95694
2023-05-24T00:25:43.564Z,95697
2023-05-24T00:26:52.225Z,95701
2023-05-24T00:28:00.880Z,95698
2023-05-24T00:29:09.588Z,95697
2023-05-24T00:30:18.239Z,95699
2023-05-24T00:31:28.748Z,95700
2023-05-24T00:32:37.426Z,95700
2023-05-24T00:33:46.039Z,95697
2023-05-24T00:34:55.713Z,95699
2023-05-24T00:36:05.399Z,95696
2023-05-24T00:37:15.075Z,95693
2023-05-24T00:38:24.730Z,95694
2023-05-24T00:39:34.556Z,95690
2023-05-24T00:40:44.324Z,95691
2023-05-24T00:41:51.851Z,95690
2023-05-24T00:43:00.505Z,95689
2023-05-24T00:44:10.184Z,95693
2023-05-24T00:45:18.863Z,95689
2023-05-24T00:46:26.558Z,95690
2023-05-24T00:47:36.204Z,95689
2023-05-24T00:48:44.804Z,95690
2023-05-24T00:49:54.459Z,95691
2023-05-24T00:51:01.152Z,95694
2023-05-24T00:52:10.820Z,95690
2023-05-24T00:53:20.471Z,95685
2023-05-24T00:54:28.154Z,95688
2023-05-24T00:55:37.824Z,95691
2023-05-24T00:56:46.463Z,95688
2023-05-24T00:57:56.116Z,95692
2023-05-24T00:59:05.783Z,95691
2023-05-24T01:00:13.459Z,95687
2023-05-24T01:01:22.121Z,95684
2023-05-24T01:02:31.777Z,95686
2023-05-24T01:03:40.477Z,95683
2023-05-24T01:04:50.082Z,95684
2023-05-24T01:06:03.375Z,95686
2023-05-24T01:07:15.251Z,95689
2023-05-24T01:08:24.872Z,95685
2023-05-24T01:09:33.553Z,95688
2023-05-24T01:10:43.442Z,95688
2023-05-24T01:11:52.893Z,95689
2023-05-24T01:13:01.571Z,95681
2023-05-24T01:14:10.214Z,95680
2023-05-24T01:15:18.892Z,95683
2023-05-24T01:16:27.562Z,95680
2023-05-24T01:17:37.228Z,95678
2023-05-24T01:18:44.836Z,95674
2023-05-24T01:19:53.544Z,95677
2023-05-24T01:21:03.200Z,95677
2023-05-24T01:22:11.843Z,95675
2023-05-24T01:23:21.535Z,95674
2023-05-24T01:24:31.152Z,95676
2023-05-24T01:25:39.797Z,95676
2023-05-24T01:26:50.461Z,95677
2023-05-24T01:27:58.103Z,95675
2023-05-24T01:29:07.774Z,95680
2023-05-24T01:30:16.440Z,95678
2023-05-24T01:31:25.100Z,95678
2023-05-24T01:32:34.830Z,95677
2023-05-24T01:33:42.458Z,95680
2023-05-24T01:34:51.106Z,95678
2023-05-24T01:35:59.773Z,95678
2023-05-24T01:37:09.518Z,95678
2023-05-24T01:38:19.183Z,95677
2023-05-24T01:39:26.954Z,95681
2023-05-24T01:40:35.501Z,95684
2023-05-24T01:41:45.186Z,95678
2023-05-24T01:42:52.828Z,95681
2023-05-24T01:44:02.480Z,95681
2023-05-24T01:45:11.161Z,95677
2023-05-24T01:46:20.835Z,95681
2023-05-24T01:47:30.501Z,95680
2023-05-24T01:48:40.107Z,95680
2023-05-24T01:49:48.756Z,95679
2023-05-24T01:50:58.429Z,95680
2023-05-24T01:52:07.120Z,95683
2023-05-24T01:53:16.742Z,95684
2023-05-24T01:54:25.397Z,95685
2023-05-24T01:55:34.072Z,95686
2023-05-24T01:56:43.696Z,95690
2023-05-24T01:57:52.381Z,95692
2023-05-24T01:59:02.059Z,95686
2023-05-24T02:00:11.697Z,95690
2023-05-24T02:01:20.365Z,95681
2023-05-24T02:02:29.078Z,95684
2023-05-24T02:03:37.683Z,95685
2023-05-24T02:04:46.328Z,95681
2023-05-24T02:05:54.960Z,95682
2023-05-24T02:07:04.704Z,95679
2023-05-24T02:08:14.372Z,95679
2023-05-24T02:09:24.030Z,95675
2023-05-24T02:10:33.693Z,95678
2023-05-24T02:11:43.356Z,95677
2023-05-24T02:12:52.991Z,95679
2023-05-24T02:14:01.670Z,95675
2023-05-24T02:15:11.378Z,95677
2023-05-24T02:16:19.040Z,95676
2023-05-24T02:17:27.705Z,95678
2023-05-24T02:18:37.353Z,95680
2023-05-24T02:19:44.998Z,95679
2023-05-24T02:20:54.658Z,95678
2023-05-24T02:22:04.324Z,95677
2023-05-24T02:23:14.007Z,95681
2023-05-24T02:24:23.713Z,95677
2023-05-24T02:25:31.398Z,95682
2023-05-24T02:26:41.056Z,95678
2023-05-24T02:27:50.725Z,95679
2023-05-24T02:28:59.405Z,95676
2023-05-24T02:30:09.085Z,95676
2023-05-24T02:31:17.829Z,95675
2023-05-24T02:32:26.466Z,95672
2023-05-24T02:33:35.115Z,95677
2023-05-24T02:34:44.792Z,95675
2023-05-24T02:35:53.508Z,95673
2023-05-24T02:37:03.160Z,95672
2023-05-24T02:38:10.828Z,95674
2023-05-24T02:39:19.491Z,95673
2023-05-24T02:40:29.140Z,95676
2023-05-24T02:41:38.790Z,95674
2023-05-24T02:42:48.483Z,95676
2023-05-24T02:43:56.136Z,95679
2023-05-24T02:45:05.758Z,95674
2023-05-24T02:46:15.441Z,95672
2023-05-24T02:47:24.076Z,95673
2023-05-24T02:48:32.701Z,95677
2023-05-24T02:49:41.376Z,95671
2023-05-24T02:50:50.031Z,95672
2023-05-24T02:51:59.717Z,95667
2023-05-24T02:53:07.381Z,95671
2023-05-24T02:54:16.014Z,95670
2023-05-24T02:55:25.685Z,95671
2023-05-24T02:56:34.325Z,95670
2023-05-24T02:57:44.038Z,95673
2023-05-24T02:58:52.660Z,95669
2023-05-24T03:00:01.334Z,95671
2023-05-24T03:01:11.007Z,95667
2023-05-24T03:02:17.661Z,95667
2023-05-24T03:03:26.337Z,95666
2023-05-24T03:04:34.962Z,95667
2023-05-24T03:05:42.624Z,95668
2023-05-24T03:06:51.339Z,95667
2023-05-24T03:08:00.004Z,95667
2023-05-24T03:09:08.720Z,95666
2023-05-24T03:10:18.371Z,95661
2023-05-24T03:11:28.009Z,95663
2023-05-24T03:12:36.653Z,95662
2023-05-24T03:13:46.322Z,95660
2023-05-24T03:14:55.968Z,95664
2023-05-24T03:16:05.670Z,95660
2023-05-24T03:17:15.274Z,95659
2023-05-24T03:18:24.926Z,95661
2023-05-24T03:19:34.593Z,95662
2023-05-24T03:20:42.347Z,95664
2023-05-24T03:21:50.941Z,95665
2023-05-24T03:23:00.578Z,95671
2023-05-24T03:24:09.217Z,95668
2023-05-24T03:25:17.865Z,95668
2023-05-24T03:26:26.501Z,95670
2023-05-24T03:27:35.225Z,95666
2023-05-24T03:28:43.915Z,95669
2023-05-24T03:29:53.551Z,95669
2023-05-24T03:31:03.228Z,95666
2023-05-24T03:32:10.889Z,95663
2023-05-24T03:33:19.563Z,95669
2023-05-24T03:34:29.204Z,95667
2023-05-24T03:35:36.841Z,95666
2023-05-24T03:36:45.482Z,95666
2023-05-24T03:37:54.129Z,95666
2023-05-24T03:39:02.809Z,95675
2023-05-24T03:40:12.471Z,95673
2023-05-24T03:41:21.112Z,95672
2023-05-24T03:42:30.766Z,95677
2023-05-24T03:43:40.471Z,95675
2023-05-24T03:44:49.135Z,95674
2023-05-24T03:45:57.825Z,95675
2023-05-24T03:47:06.448Z,95679
2023-05-24T03:48:15.122Z,95682
2023-05-24T03:49:24.749Z,95683
2023-05-24T03:50:33.448Z,95683
2023-05-24T03:51:43.109Z,95689
2023-05-24T03:52:52.739Z,95688
2023-05-24T03:54:00.387Z,95692
2023-05-24T03:55:10.024Z,95692
2023-05-24T03:56:18.719Z,95697
2023-05-24T03:57:27.364Z,95696
2023-05-24T03:58:37.039Z,95693
2023-05-24T03:59:45.694Z,95692
2023-05-24T04:00:54.328Z,95696
2023-05-24T04:02:04.082Z,95696
2023-05-24T04:03:11.757Z,95702
2023-05-24T04:04:21.439Z,95703
2023-05-24T04:05:31.046Z,95703
2023-05-24T04:06:39.718Z,95690
2023-05-24T04:07:49.438Z,95698
2023-05-24T04:08:58.085Z,95698
2023-05-24T04:10:06.740Z,95692
2023-05-24T04:11:16.462Z,95696
2023-05-24T04:12:25.150Z,95697
2023-05-24T04:13:33.878Z,95695
2023-05-24T04:14:42.558Z,95691
2023-05-24T04:15:51.209Z,95697
2023-05-24T04:17:01.038Z,95694
2023-05-24T04:18:09.741Z,95693
2023-05-24T04:19:18.369Z,95693
2023-05-24T04:20:28.076Z,95694
2023-05-24T04:21:37.708Z,95696
2023-05-24T04:22:46.502Z,95699
2023-05-24T04:23:56.156Z,95698
2023-05-24T04:25:05.842Z,95695
2023-05-24T04:26:15.496Z,95696
2023-05-24T04:27:23.183Z,95694
2023-05-24T04:28:31.873Z,95699
2023-05-24T04:29:41.529Z,95695
2023-05-24T04:30:49.200Z,95692
2023-05-24T04:31:57.887Z,95700
2023-05-24T04:33:06.551Z,95700
2023-05-24T04:34:16.244Z,95701
2023-05-24T04:35:25.901Z,95695
2023-05-24T04:36:33.614Z,95695
2023-05-24T04:37:42.217Z,95703
2023-05-24T04:38:51.875Z,95702
2023-05-24T04:40:01.701Z,95704
2023-05-24T04:41:11.338Z,95699
2023-05-24T04:42:20.017Z,95701
2023-05-24T04:43:28.666Z,95702
2023-05-24T04:44:38.304Z,95696
2023-05-24T04:45:46.004Z,95701
2023-05-24T04:46:54.670Z,95701
2023-05-24T04:48:04.316Z,95703
2023-05-24T04:49:11.988Z,95696
2023-05-24T04:50:21.658Z,95706
2023-05-24T04:51:31.340Z,95705
2023-05-24T04:52:41.035Z,95700
2023-05-24T04:53:50.745Z,95703
2023-05-24T04:55:00.500Z,95700
2023-05-24T04:56:09.127Z,95702
2023-05-24T04:57:18.807Z,95706
2023-05-24T04:58:26.470Z,95707
2023-05-24T04:59:36.134Z,95710
2023-05-24T05:00:44.824Z,95708
2023-05-24T05:01:53.542Z,95713
2023-05-24T05:03:03.250Z,95711
2023-05-24T05:04:10.936Z,95712
2023-05-24T05:05:20.582Z,95714
2023-05-24T05:06:30.272Z,95710
2023-05-24T05:07:39.110Z,95714
2023-05-24T05:08:48.903Z,95718
2023-05-24T05:09:58.425Z,95717
2023-05-24T05:11:07.098Z,95716
2023-05-24T05:12:16.748Z,95715
2023-05-24T05:13:24.395Z,95717
2023-05-24T05:14:34.066Z,95710
2023-05-24T05:15:43.711Z,95712
2023-05-24T05:16:51.425Z,95713
2023-05-24T05:18:00.180Z,95713
2023-05-24T05:19:08.755Z,95715
2023-05-24T05:20:18.516Z,95712
2023-05-24T05:21:28.221Z,95711
2023-05-24T05:22:36.945Z,95714
2023-05-24T05:23:45.578Z,95714
2023-05-24T05:24:55.310Z,95715
2023-05-24T05:26:04.002Z,95708
2023-05-24T05:27:13.696Z,95718
2023-05-24T05:28:22.399Z,95722
2023-05-24T05:29:31.046Z,95719
2023-05-24T05:30:39.757Z,95726
2023-05-24T05:31:49.415Z,95723
2023-05-24T05:32:59.276Z,95721
2023-05-24T05:34:07.762Z,95724
2023-05-24T05:35:17.425Z,95723
2023-05-24T05:36:27.120Z,95716
2023-05-24T05:37:35.800Z,95715
2023-05-24T05:38:44.490Z,95716
2023-05-24T05:39:53.173Z,95717
2023-05-24T05:41:01.858Z,95716
2023-05-24T05:42:11.889Z,95716
2023-05-24T05:43:20.951Z,95715
2023-05-24T05:44:28.633Z,95709
2023-05-24T05:45:38.293Z,95716
2023-05-24T05:46:46.009Z,95713
2023-05-24T05:47:54.678Z,95714
2023-05-24T05:49:04.386Z,95714
2023-05-24T05:50:13.047Z,95712
2023-05-24T05:51:22.775Z,95713
2023-05-24T05:52:30.435Z,95708
2023-05-24T05:53:39.075Z,95712
2023-05-24T05:54:48.768Z,95716
2023-05-24T05:55:58.421Z,95709
2023-05-24T05:57:08.201Z,95710
2023-05-24T05:58:17.796Z,95707
2023-05-24T05:59:27.517Z,95708
2023-05-24T06:00:37.150Z,95707
2023-05-24T06:01:44.800Z,95705
2023-05-24T06:02:54.586Z,95700
2023-05-24T06:04:04.191Z,95703
2023-05-24T06:05:12.538Z,95705
2023-05-24T06:06:20.499Z,95702
2023-05-24T06:07:28.168Z,95705
2023-05-24T06:08:36.801Z,95705
2023-05-24T06:09:45.475Z,95701
2023-05-24T06:10:55.117Z,95700
2023-05-24T06:12:04.795Z,95702
2023-05-24T06:13:15.461Z,95698
2023-05-24T06:14:24.113Z,95703
2023-05-24T06:15:33.823Z,95704
2023-05-24T06:16:42.564Z,95696
2023-05-24T06:17:51.476Z,95699
2023-05-24T06:19:05.719Z,95699
2023-05-24T06:20:10.798Z,95701
2023-05-24T06:21:19.458Z,95701
2023-05-24T06:22:29.120Z,95698
2023-05-24T06:23:37.911Z,95698
2023-05-24T06:24:46.608Z,95699
2023-05-24T06:25:55.268Z,95699
2023-05-24T06:27:05.649Z,95698
2023-05-24T06:28:14.683Z,95698
2023-05-24T06:29:24.354Z,95697
2023-05-24T06:30:34.114Z,95701
2023-05-24T06:31:43.798Z,95702
2023-05-24T06:32:53.309Z,95707
2023-05-24T06:34:04.541Z,95706
2023-05-24T06:35:12.647Z,95704
2023-05-24T06:36:21.332Z,95704
2023-05-24T06:37:31.022Z,95706
2023-05-24T06:38:38.698Z,95703
2023-05-24T06:39:47.391Z,95707
2023-05-24T06:40:57.044Z,95709
2023-05-24T06:42:05.704Z,95708
2023-05-24T06:43:14.396Z,95705
2023-05-24T06:44:24.610Z,95701
2023-05-24T06:45:32.710Z,95702
2023-05-24T06:46:42.357Z,95700
2023-05-24T06:47:51.068Z,95704
2023-05-24T06:49:00.853Z,95702
2023-05-24T06:50:10.398Z,95706
2023-05-24T06:51:20.150Z,95702
2023-05-24T06:52:28.795Z,95702
2023-05-24T06:53:37.484Z,95705
2023-05-24T06:54:46.130Z,95701
2023-05-24T06:55:56.890Z,95706
2023-05-24T06:57:04.507Z,95704
2023-05-24T06:58:13.142Z,95706
2023-05-24T06:59:21.906Z,95709
2023-05-24T07:00:31.627Z,95707
2023-05-24T07:01:41.398Z,95712
2023-05-24T07:02:51.010Z,95713
2023-05-24T07:04:00.670Z,95711
2023-05-24T07:05:09.383Z,95713
2023-05-24T07:06:19.177Z,95716
2023-05-24T07:07:27.814Z,95722
2023-05-24T07:08:37.550Z,95721
2023-05-24T07:09:45.209Z,95726
2023-05-24T07:10:54.918Z,95722
2023-05-24T07:12:05.853Z,95725
2023-05-24T07:13:13.419Z,95722
2023-05-24T07:14:23.041Z,95711
2023-05-24T07:15:31.742Z,95714
2023-05-24T07:16:41.437Z,95714
2023-05-24T07:17:51.159Z,95714
2023-05-24T07:19:03.211Z,95716
2023-05-24T07:20:09.504Z,95717
2023-05-24T07:21:18.210Z,95720
2023-05-24T07:22:26.887Z,95722
2023-05-24T07:23:35.665Z,95724
2023-05-24T07:24:44.327Z,95722
2023-05-24T07:25:53.991Z,95721
2023-05-24T07:27:02.645Z,95725
2023-05-24T07:28:12.326Z,95723
2023-05-24T07:29:22.033Z,95725
2023-05-24T07:30:32.402Z,95724
2023-05-24T07:31:40.378Z,95725
2023-05-24T07:32:50.125Z,95715
2023-05-24T07:33:59.708Z,95712
2023-05-24T07:35:09.405Z,95720
2023-05-24T07:36:17.095Z,95722
2023-05-24T07:37:25.762Z,95714
2023-05-24T07:38:35.405Z,95717
2023-05-24T07:39:45.109Z,95717
2023-05-24T07:40:53.756Z,95721
2023-05-24T07:42:02.420Z,95721
2023-05-24T07:43:12.069Z,95719
2023-05-24T07:44:21.853Z,95722
2023-05-24T07:45:31.592Z,95720
2023-05-24T07:46:40.428Z,95719
2023-05-24T07:47:50.162Z,95722
2023-05-24T07:48:59.783Z,95723
2023-05-24T07:50:09.490Z,95719
2023-05-24T07:51:19.184Z,95726
2023-05-24T07:52:28.855Z,95723
2023-05-24T07:53:38.511Z,95724
2023-05-24T07:54:47.180Z,95725
2023-05-24T07:55:55.872Z,95720
2023-05-24T07:57:06.667Z,95728
2023-05-24T07:58:14.219Z,95723
2023-05-24T07:59:23.932Z,95721
2023-05-24T08:00:33.650Z,95724
2023-05-24T08:01:41.321Z,95724
2023-05-24T08:02:51.099Z,95728
2023-05-24T08:03:59.713Z,95725
2023-05-24T08:05:08.378Z,95721
2023-05-24T08:06:18.086Z,95725
2023-05-24T08:07:28.989Z,95723
2023-05-24T08:08:37.442Z,95724
2023-05-24T08:09:46.129Z,95727
2023-05-24T08:10:54.822Z,95728
2023-05-24T08:12:04.478Z,95728
2023-05-24T08:13:13.116Z,95725
2023-05-24T08:14:21.858Z,95728
2023-05-24T08:15:31.587Z,95725
2023-05-24T08:16:39.292Z,95725
2023-05-24T08:17:48.984Z,95722
2023-05-24T08:18:58.620Z,95722
2023-05-24T08:20:08.303Z,95719
2023-05-24T08:21:17.982Z,95716
2023-05-24T08:22:25.668Z,95717
2023-05-24T08:23:34.385Z,95719
2023-05-24T08:24:44.043Z,95719
2023-05-24T08:25:51.758Z,95725
2023-05-24T08:27:00.926Z,95724
2023-05-24T08:28:09.650Z,95727
2023-05-24T08:29:18.275Z,95731
2023-05-24T08:30:27.981Z,95734
2023-05-24T08:31:37.773Z,95734
2023-05-24T08:32:46.458Z,95733
2023-05-24T08:33:56.133Z,95736
2023-05-24T08:35:19.076Z,95727
2023-05-24T08:36:14.469Z,95735
2023-05-24T08:37:23.144Z,95731
2023-05-24T08:38:32.897Z,95734
2023-05-24T08:39:42.581Z,95736
2023-05-24T08:40:51.248Z,95738
2023-05-24T08:42:09.078Z,95739
2023-05-24T08:43:11.549Z,95736
2023-05-24T08:44:19.208Z,95729
2023-05-24T08:45:28.901Z,95732
2023-05-24T08:46:37.666Z,95731
2023-05-24T08:47:46.436Z,95743
2023-05-24T08:48:56.041Z,95744
2023-05-24T08:50:04.896Z,95739
2023-05-24T08:51:13.547Z,95736
2023-05-24T08:52:23.988Z,95736
2023-05-24T08:53:31.803Z,95735
2023-05-24T08:54:41.487Z,95741
2023-05-24T08:55:51.113Z,95738
2023-05-24T08:56:59.828Z,95742
2023-05-24T08:58:09.553Z,95747
2023-05-24T08:59:18.270Z,95740
2023-05-24T09:00:27.971Z,95739
2023-05-24T09:01:37.748Z,95748
2023-05-24T09:02:45.431Z,95750
2023-05-24T09:03:54.046Z,95749
2023-05-24T09:05:02.690Z,95748
2023-05-24T09:06:12.340Z,95749
2023-05-24T09:07:22.043Z,95744
2023-05-24T09:08:30.746Z,95748
2023-05-24T09:09:39.399Z,95744
2023-05-24T09:10:55.224Z,95743
2023-05-24T09:11:58.747Z,95744
2023-05-24T09:13:08.395Z,95743
2023-05-24T09:14:17.123Z,95741
2023-05-24T09:15:26.812Z,95736
2023-05-24T09:16:36.561Z,95742
2023-05-24T09:17:45.146Z,95744
2023-05-24T09:18:54.788Z,95745
2023-05-24T09:20:04.529Z,95742
2023-05-24T09:21:14.125Z,95745
2023-05-24T09:22:23.775Z,95745
2023-05-24T09:23:32.439Z,95750
2023-05-24T09:24:41.163Z,95751
2023-05-24T09:25:50.844Z,95750
2023-05-24T09:27:00.540Z,95753
2023-05-24T09:28:10.152Z,95748
2023-05-24T09:29:19.936Z,95750
2023-05-24T09:30:28.635Z,95748
2023-05-24T09:31:38.417Z,95751
2023-05-24T09:32:47.154Z,95754
2023-05-24T09:33:55.785Z,95761
2023-05-24T09:35:04.456Z,95761
2023-05-24T09:36:13.164Z,95759
2023-05-24T09:37:26.883Z,95762
2023-05-24T09:38:33.495Z,95761
2023-05-24T09:39:42.190Z,95762
2023-05-24T09:40:51.840Z,95766
2023-05-24T09:42:00.548Z,95762
2023-05-24T09:43:10.419Z,95763
2023-05-24T09:44:19.912Z,95766
2023-05-24T09:45:28.565Z,95765
2023-05-24T09:46:38.295Z,95764
2023-05-24T09:47:46.975Z,95767
2023-05-24T09:48:55.594Z,95770
2023-05-24T09:50:05.263Z,95772
2023-05-24T09:51:13.945Z,95768
2023-05-24T09:52:23.634Z,95763
2023-05-24T09:53:33.306Z,95766
2023-05-24T09:54:42.002Z,95764
2023-05-24T09:55:51.674Z,95765
2023-05-24T09:56:59.339Z,95761
2023-05-24T09:58:08.029Z,95763
2023-05-24T09:59:18.784Z,95766
2023-05-24T10:00:27.362Z,95760
2023-05-24T10:01:36.267Z,95759
2023-05-24T10:02:52.683Z,95760
2023-05-24T10:03:55.675Z,95759
2023-05-24T10:05:05.183Z,95765
2023-05-24T10:06:13.953Z,95763
2023-05-24T10:07:23.600Z,95758
2023-05-24T10:08:33.270Z,95765
2023-05-24T10:09:42.996Z,95768
2023-05-24T10:10:52.652Z,95772
2023-05-24T10:12:01.410Z,95771
2023-05-24T10:13:10.095Z,95771
2023-05-24T10:14:19.795Z,95772
2023-05-24T10:15:29.600Z,95771
2023-05-24T10:16:38.347Z,95772
2023-05-24T10:17:47.904Z,95768
2023-05-24T10:18:55.577Z,95770
2023-05-24T10:20:05.292Z,95764
2023-05-24T10:21:15.027Z,95769
2023-05-24T10:22:23.634Z,95767
2023-05-24T10:23:33.355Z,95765
2023-05-24T10:24:42.016Z,95767
2023-05-24T10:25:50.735Z,95769
2023-05-24T10:27:00.409Z,95767
2023-05-24T10:28:09.053Z,95772
2023-05-24T10:29:18.884Z,95770
2023-05-24T10:30:28.544Z,95772
2023-05-24T10:31:38.294Z,95775
2023-05-24T10:32:47.979Z,95773
2023-05-24T10:34:01.557Z,95774
2023-05-24T10:35:06.285Z,95769
2023-05-24T10:36:15.994Z,95773
2023-05-24T10:37:24.629Z,95779
2023-05-24T10:38:33.291Z,95772
2023-05-24T10:39:41.948Z,95773
2023-05-24T10:40:50.763Z,95770
2023-05-24T10:42:00.339Z,95770
2023-05-24T10:43:10.979Z,95775
2023-05-24T10:44:20.675Z,95775
2023-05-24T10:45:30.337Z,95771
2023-05-24T10:46:39.008Z,95778
2023-05-24T10:47:48.769Z,95771
2023-05-24T10:48:58.354Z,95775
2023-05-24T10:50:07.036Z,95778
2023-05-24T10:51:16.719Z,95777
2023-05-24T10:52:24.378Z,95776
2023-05-24T10:53:34.075Z,95777
2023-05-24T10:54:55.903Z,95778
2023-05-24T10:55:54.455Z,95778
2023-05-24T10:57:04.151Z,95776
2023-05-24T10:58:12.810Z,95778
2023-05-24T10:59:22.853Z,95779
2023-05-24T11:00:35.578Z,95781
2023-05-24T11:01:42.335Z,95778
2023-05-24T11:02:51.042Z,95775
2023-05-24T11:04:00.628Z,95777
2023-05-24T11:05:08.332Z,95774
2023-05-24T11:06:17.965Z,95773
2023-05-24T11:07:26.676Z,95769
2023-05-24T11:08:35.439Z,95774
2023-05-24T11:09:45.045Z,95773
2023-05-24T11:10:54.732Z,95763
2023-05-24T11:12:04.440Z,95770
2023-05-24T11:13:14.344Z,95766
2023-05-24T11:14:22.091Z,95770
2023-05-24T11:15:30.966Z,95763
2023-05-24T11:16:40.332Z,95768
2023-05-24T11:17:48.484Z,95769
2023-05-24T11:18:58.319Z,95770
2023-05-24T11:20:06.965Z,95774
2023-05-24T11:21:16.754Z,95772
2023-05-24T11:22:24.519Z,95771
2023-05-24T11:23:36.057Z,95768
2023-05-24T11:24:43.770Z,95771
2023-05-24T11:25:53.508Z,95768
2023-05-24T11:27:02.206Z,95773
2023-05-24T11:28:11.884Z,95769
2023-05-24T11:29:20.620Z,95767
2023-05-24T11:30:30.331Z,95768
2023-05-24T11:31:42.525Z,95766
2023-05-24T11:32:48.680Z,95764
2023-05-24T11:33:58.300Z,95765
2023-05-24T11:35:07.050Z,95766
2023-05-24T11:36:15.725Z,95768
2023-05-24T11:37:35.134Z,95767
2023-05-24T11:38:35.081Z,95771
2023-05-24T11:39:44.739Z,95769
2023-05-24T11:40:54.468Z,95767
2023-05-24T11:42:04.410Z,95768
2023-05-24T11:43:16.477Z,95769
2023-05-24T11:44:21.776Z,95767
2023-05-24T11:45:30.428Z,95770
2023-05-24T11:46:40.133Z,95766
2023-05-24T11:47:48.897Z,95766
2023-05-24T11:48:57.546Z,95761
2023-05-24T11:50:06.194Z,95763
2023-05-24T11:51:15.925Z,95763
2023-05-24T11:52:25.651Z,95762
2023-05-24T11:53:33.496Z,95766
2023-05-24T11:54:42.150Z,95765
2023-05-24T11:55:50.899Z,95762
2023-05-24T11:56:59.586Z,95765
2023-05-24T11:58:09.295Z,95763
2023-05-24T11:59:17.040Z,95765
2023-05-24T12:00:26.714Z,95766
2023-05-24T12:01:36.455Z,95766
2023-05-24T12:02:45.014Z,95765
2023-05-24T12:03:55.896Z,95765
2023-05-24T12:05:04.463Z,95765
2023-05-24T12:06:13.039Z,95767
2023-05-24T12:07:22.774Z,95773
2023-05-24T12:08:32.497Z,95772
2023-05-24T12:09:41.216Z,95772
2023-05-24T12:10:50.927Z,95765
2023-05-24T12:12:00.694Z,95766
2023-05-24T12:13:09.348Z,95772
2023-05-24T12:14:19.049Z,95768
2023-05-24T12:15:27.705Z,95769
2023-05-24T12:16:37.449Z,95771
2023-05-24T12:17:45.247Z,95771
2023-05-24T12:19:04.019Z,95772
2023-05-24T12:20:05.504Z,95770
2023-05-24T12:21:14.236Z,95774
2023-05-24T12:22:22.829Z,95771
2023-05-24T12:23:31.730Z,95769
2023-05-24T12:24:41.277Z,95771
2023-05-24T12:25:50.915Z,95774
2023-05-24T12:26:59.569Z,95767
2023-05-24T12:28:08.330Z,95773
2023-05-24T12:29:18.030Z,95770
2023-05-24T12:30:25.717Z,95782
2023-05-24T12:31:34.450Z,95781
2023-05-24T12:32:44.219Z,95778
2023-05-24T12:33:54.401Z,95778
2023-05-24T12:35:03.522Z,95775
2023-05-24T12:36:12.224Z,95779
2023-05-24T12:37:22.019Z,95778
2023-05-24T12:38:31.761Z,95778
2023-05-24T12:39:40.427Z,95779
2023-05-24T12:40:59.893Z,95779
2023-05-24T12:42:00.757Z,95781
2023-05-24T12:43:09.415Z,95776
2023-05-24T12:44:19.128Z,95782
2023-05-24T12:45:28.939Z,95777
2023-05-24T12:46:38.620Z,95787
2023-05-24T12:47:48.348Z,95782
2023-05-24T12:48:57.945Z,95787
2023-05-24T12:50:06.872Z,95785
2023-05-24T12:51:15.615Z,95783
2023-05-24T12:52:25.289Z,95782
2023-05-24T12:53:34.928Z,95781
2023-05-24T12:54:43.646Z,95782
2023-05-24T12:55:52.410Z,95781
2023-05-24T12:57:02.122Z,95780
2023-05-24T12:58:11.773Z,95777
2023-05-24T12:59:21.435Z,95777
2023-05-24T13:00:31.116Z,95776
2023-05-24T13:01:40.018Z,95774
2023-05-24T13:02:49.618Z,95781
2023-05-24T13:03:58.233Z,95772
2023-05-24T13:05:07.083Z,95773
2023-05-24T13:06:16.764Z,95772
2023-05-24T13:07:24.459Z,95769
2023-05-24T13:08:33.465Z,95768
2023-05-24T13:09:43.471Z,95766
2023-05-24T13:10:52.165Z,95765
2023-05-24T13:12:01.825Z,95766
2023-05-24T13:13:10.502Z,95763
2023-05-24T13:14:19.214Z,95766
2023-05-24T13:15:29.961Z,95759
2023-05-24T13:16:38.635Z,95758
2023-05-24T13:17:48.291Z,95762
2023-05-24T13:18:56.939Z,95765
2023-05-24T13:20:05.689Z,95759
2023-05-24T13:21:14.332Z,95764
2023-05-24T13:22:22.959Z,95762
2023-05-24T13:23:32.616Z,95760
2023-05-24T13:24:41.277Z,95764
2023-05-24T13:25:50.949Z,95761
2023-05-24T13:27:00.688Z,95763
2023-05-24T13:28:10.368Z,95762
2023-05-24T13:29:32.753Z,95764
2023-05-24T13:30:30.818Z,95762
2023-05-24T13:31:39.582Z,95762
2023-05-24T13:32:49.120Z,95766
2023-05-24T13:33:56.827Z,95758
2023-05-24T13:35:08.267Z,95760
2023-05-24T13:36:17.231Z,95762
2023-05-24T13:37:25.910Z,95759
2023-05-24T13:38:34.599Z,95761
2023-05-24T13:39:43.300Z,95757
2023-05-24T13:40:52.962Z,95757
2023-05-24T13:42:02.664Z,95761
2023-05-24T13:43:12.358Z,95762
2023-05-24T13:44:21.021Z,95760
2023-05-24T13:45:30.707Z,95761
2023-05-24T13:46:39.482Z,95769
2023-05-24T13:47:49.077Z,95771
2023-05-24T13:48:57.730Z,95762
2023-05-24T13:50:06.458Z,95765
2023-05-24T13:51:16.117Z,95773
2023-05-24T13:52:24.786Z,95775
2023-05-24T13:53:33.432Z,95774
2023-05-24T13:54:43.155Z,95771
2023-05-24T13:55:51.798Z,95772
2023-05-24T13:57:00.466Z,95776
2023-05-24T13:58:09.149Z,95776
2023-05-24T13:59:18.852Z,95773
2023-05-24T14:00:28.533Z,95773
2023-05-24T14:01:37.392Z,95777
2023-05-24T14:02:47.204Z,95774
2023-05-24T14:03:56.705Z,95774
2023-05-24T14:05:17.800Z,95772
2023-05-24T14:06:15.074Z,95775
2023-05-24T14:07:24.811Z,95778
2023-05-24T14:08:33.461Z,95781
2023-05-24T14:09:43.142Z,95782
2023-05-24T14:10:52.868Z,95780
2023-05-24T14:12:01.600Z,95775
2023-05-24T14:13:32.096Z,95771
2023-05-24T14:14:58.282Z,95769
2023-05-24T14:15:31.569Z,95767
2023-05-24T14:16:41.354Z,95767
2023-05-24T14:17:50.974Z,95765
2023-05-24T14:19:00.641Z,95766
2023-05-24T14:20:09.339Z,95771
2023-05-24T14:21:18.075Z,95768
2023-05-24T14:22:27.785Z,95769
2023-05-24T14:23:35.549Z,95776
2023-05-24T14:24:45.921Z,95777
2023-05-24T14:25:54.691Z,95777
2023-05-24T14:27:03.306Z,95779
2023-05-24T14:28:13.063Z,95781
2023-05-24T14:29:20.739Z,95775
2023-05-24T14:30:30.419Z,95777
2023-05-24T14:31:39.149Z,95778
2023-05-24T14:32:47.798Z,95774
2023-05-24T14:33:56.455Z,95775
2023-05-24T14:35:05.125Z,95776
2023-05-24T14:36:13.755Z,95774
2023-05-24T14:37:23.449Z,95778
2023-05-24T14:38:32.110Z,95777
2023-05-24T14:39:40.804Z,95777
2023-05-24T14:40:50.510Z,95776
2023-05-24T14:41:59.127Z,95777
2023-05-24T14:43:07.805Z,95778
2023-05-24T14:44:17.477Z,95779
2023-05-24T14:45:27.191Z,95776
2023-05-24T14:46:37.921Z,95775
2023-05-24T14:47:47.548Z,95773
2023-05-24T14:48:56.158Z,95768
2023-05-24T14:50:04.864Z,95768